Latest Weather Observations for Mount Magnet Airport

IDW60801

Issued at 6:02 pm WST Thursday 30 July 2015 (issued every 30 minutes, with the page automatically refreshed every 10 minutes)

About weather observations | Map of weather stations | Latest weather observations for WA | Other Formats
Station Details ID: 007600 Name: MOUNT MAGNET AERO Lat: -28.12 Lon: 117.84 Height: 407.0 m
Data from the previous 72 hours. | See also: Recent months at Mount Magnet Airport
Date/Time
WST
Temp
°C
App
Temp
°C
Dew
Point
Rel
Hum
%
Delta-T
°C
Wind Press
QNH
hPa
Press
MSL
hPa
Rain
since 9 am
mm
Dir
 
Spd
km/h
Gust
km/h
Spd
kts
Gust
kts
30/06:00pm 23.3 24.0 15.6 62 4.7 N 6 7 3 4 1020.0 1019.7 0.0
30/05:30pm 24.1 24.5 15.3 58 5.4 N 7 9 4 5 1019.8 1019.5 0.0
30/05:00pm 24.8 24.9 14.0 51 6.5 N 6 7 3 4 1019.7 1019.4 0.0
30/04:30pm 25.0 25.0 14.2 51 6.5 N 7 11 4 6 1019.8 1019.5 0.0
30/04:00pm 25.0 24.2 15.0 53 6.1 N 13 15 7 8 1019.8 1019.5 0.0
30/03:30pm 25.1 24.0 14.3 51 6.5 N 13 17 7 9 1019.7 1019.4 0.0
30/03:00pm 25.0 23.1 14.2 51 6.5 NNW 17 22 9 12 1019.7 1019.4 0.0
30/02:30pm 24.9 22.9 13.8 50 6.6 NNW 17 24 9 13 1019.9 1019.6 0.0
30/02:00pm 25.1 24.1 14.6 52 6.4 N 13 20 7 11 1020.1 1019.8 0.0
30/01:30pm 24.6 23.8 15.0 55 5.8 NNE 13 19 7 10 1020.4 1020.2 0.0
30/01:00pm 23.9 21.7 13.4 51 6.2 N 17 24 9 13 1020.8 1020.6 0.0
30/12:30pm 24.2 22.0 13.4 51 6.4 NNE 17 22 9 12 1021.1 1020.9 0.0
30/12:00pm 23.2 20.6 13.1 53 5.9 NNE 19 24 10 13 1021.4 1021.2 0.0
30/11:30am 22.7 20.6 13.7 56 5.3 NNE 17 20 9 11 1021.8 1021.5 0.0
30/11:00am 21.8 19.7 13.7 60 4.8 NNE 17 20 9 11 1022.1 1021.8 0.0
30/10:30am 20.9 19.6 14.8 68 3.6 NNE 15 19 8 10 1022.4 1022.1 0.0
30/10:00am 19.8 19.0 15.2 75 2.7 NNE 13 17 7 9 1022.6 1022.4 0.0
30/09:30am 18.4 17.0 14.5 78 2.3 NNE 15 20 8 11 1022.9 1022.7 0.0
30/09:00am 17.5 16.2 14.8 84 1.6 N 15 20 8 11 1022.7 1022.5 23.0
30/08:30am 16.5 15.9 14.7 89 1.1 NNE 11 17 6 9 1022.6 1022.4 23.0
30/08:00am 15.6 15.0 14.5 93 0.6 NNE 11 13 6 7 1022.5 1022.3 23.0
30/07:30am 15.1 14.0 14.3 95 0.5 NNE 13 15 7 8 1022.2 1021.9 23.0
30/07:00am 14.9 14.5 14.1 95 0.5 NNE 9 11 5 6 1021.9 1021.6 23.0
30/06:30am 15.0 13.8 14.0 94 0.6 NNE 13 15 7 8 1021.8 1021.5 23.0
30/06:00am 15.2 15.2 14.1 93 0.6 NNE 7 11 4 6 1021.4 1021.2 23.0
30/05:30am 15.2 14.8 14.1 93 0.6 NNE 9 13 5 7 1021.1 1020.9 23.0
30/05:00am 15.3 14.9 14.2 93 0.6 NE 9 13 5 7 1021.0 1020.8 23.0
30/04:30am 15.6 15.9 14.6 94 0.6 SSE 6 7 3 4 1021.5 1021.3 23.0
30/04:00am 15.9 15.4 14.8 93 0.6 NNE 11 15 6 8 1021.5 1021.3 23.0
30/03:30am 15.8 14.0 14.5 92 0.8 NNE 17 22 9 12 1021.5 1021.3 23.0
30/03:00am 15.5 13.6 14.2 92 0.7 NNE 17 20 9 11 1021.9 1021.6 23.0
30/02:30am 15.3 15.0 14.3 94 0.6 NNE 9 13 5 7 1022.2 1021.9 23.0
30/02:00am 15.4 15.6 14.3 93 0.6 WSW 6 7 3 4 1022.8 1022.6 23.0
30/01:30am 15.4 15.1 14.3 93 0.6 N 9 11 5 6 1022.6 1022.4 22.8
30/01:00am 15.3 15.5 14.2 93 0.6 NNE 6 7 3 4 1022.9 1022.7 22.8
30/12:30am 15.4 14.6 14.1 92 0.7 N 11 15 6 8 1022.8 1022.6 22.8
30/12:00am 15.7 14.9 14.1 90 0.9 NNW 11 13 6 7 1023.1 1022.9 22.8
 
Date/Time
WST
Temp
°C
App
Temp
°C
Dew
Point
Rel
Hum
%
Delta-T
°C
Wind Press
QNH
hPa
Press
MSL
hPa
Rain
since 9 am
mm
Dir
 
Spd
km/h
Gust
km/h
Spd
kts
Gust
kts
29/11:30pm 15.8 14.6 14.0 89 1.0 NW 13 17 7 9 1023.4 1023.2 22.8
29/11:00pm 15.8 14.7 14.2 90 0.9 NW 13 17 7 9 1023.4 1023.2 22.8
29/10:30pm 16.0 15.8 14.7 92 0.8 NNW 9 11 5 6 1022.9 1022.7 22.8
29/10:00pm 15.7 15.4 14.4 92 0.8 NNE 9 11 5 6 1023.0 1022.8 22.8
29/09:30pm 15.8 16.0 14.2 90 0.9 SSE 6 7 3 4 1023.3 1023.1 22.8
29/09:00pm 15.9 14.0 14.3 90 0.9 WSW 17 24 9 13 1023.7 1023.5 22.6
29/08:38pm 16.9 14.5 14.5 86 1.4 SW 20 44 11 24 1023.1 1022.9 21.0
29/08:30pm 18.2 19.9 17.2 94 0.6 SSW 4 11 2 6 1022.6 1022.4 20.2
29/08:00pm 18.1 18.8 17.1 94 0.6 NW 9 13 5 7 1022.2 1021.9 19.8
29/07:30pm 18.1 18.1 17.3 95 0.5 NNW 13 17 7 9 1022.3 1022.0 19.4
29/07:00pm 18.1 17.0 17.3 95 0.5 N 19 22 10 12 1021.5 1021.3 18.4
29/06:30pm 18.0 17.3 17.4 96 0.4 NNW 17 22 9 12 1021.2 1021.0 16.8
29/06:00pm 18.1 18.5 17.3 95 0.5 NNW 11 13 6 7 1020.6 1020.4 12.8
29/05:30pm 18.3 18.8 17.5 95 0.5 WNW 11 17 6 9 1020.6 1020.4 9.6
29/05:00pm 18.3 18.0 17.3 94 0.6 W 15 19 8 10 1020.5 1020.3 7.8
29/04:30pm 18.5 16.8 17.3 93 0.7 SW 22 35 12 19 1020.3 1020.0 2.2
29/04:00pm 19.1 18.2 17.8 92 0.8 WSW 19 24 10 13 1020.3 1020.0 1.2
29/03:30pm 19.2 18.5 18.2 94 0.6 WSW 19 30 10 16 1020.5 1020.3 1.0
29/03:00pm 20.8 20.1 17.4 81 2.1 W 17 22 9 12 1020.2 1019.9 0.2
29/02:30pm 22.5 20.8 16.3 68 3.8 NW 20 26 11 14 1019.8 1019.5 0.0
29/02:00pm 22.8 21.2 16.4 67 4.0 WNW 20 28 11 15 1019.8 1019.5 0.0
29/01:30pm 22.9 21.3 16.4 67 4.0 WNW 20 30 11 16 1019.9 1019.6 0.0
29/01:00pm 22.3 20.4 16.6 70 3.5 WNW 22 30 12 16 1020.4 1020.2 0.0
29/12:30pm 21.8 21.3 17.0 74 3.0 NW 15 20 8 11 1020.8 1020.6 0.0
29/12:00pm 21.7 21.3 17.1 75 2.9 WNW 15 20 8 11 1021.3 1021.1 0.0
29/11:30am 20.4 19.0 17.0 81 2.1 NW 20 28 11 15 1021.7 1021.4 0.0
29/11:00am 20.2 19.1 17.2 83 1.9 NW 19 26 10 14 1022.0 1021.7 0.0
29/10:30am 19.5 18.1 17.1 86 1.5 NW 20 28 11 15 1022.1 1021.8 0.0
29/10:00am 18.7 17.9 17.2 91 0.9 NW 17 24 9 13 1022.2 1021.9 0.0
29/09:30am 17.9 17.0 16.9 94 0.6 NNW 17 19 9 10 1022.2 1021.9 0.0
29/09:00am 17.6 16.5 16.3 92 0.8 NNW 17 20 9 11 1022.0 1021.7 3.6
29/08:30am 17.2 16.4 16.1 93 0.7 NNW 15 19 8 10 1021.9 1021.6 3.6
29/08:00am 16.7 16.5 15.7 94 0.6 NNW 11 13 6 7 1021.7 1021.4 3.6
29/07:30am 16.6 16.0 15.6 94 0.6 NW 13 17 7 9 1021.4 1021.2 3.6
29/07:00am 16.5 15.5 15.5 94 0.6 NNW 15 17 8 9 1021.1 1020.9 3.6
29/06:30am 16.5 15.5 15.5 94 0.6 NNW 15 19 8 10 1020.5 1020.3 3.6
29/06:00am 16.6 16.7 15.5 93 0.7 NW 9 13 5 7 1020.4 1020.2 3.6
29/05:30am 16.5 16.2 15.4 93 0.7 NW 11 15 6 8 1020.1 1019.8 3.6
29/05:00am 16.4 15.6 15.1 92 0.8 NNW 13 17 7 9 1020.0 1019.7 3.6
29/04:30am 16.4 15.5 14.9 91 0.9 NNW 13 15 7 8 1020.3 1020.0 3.6
29/04:00am 16.2 15.7 14.9 92 0.8 NNW 11 15 6 8 1020.3 1020.0 3.4
29/03:30am 16.4 15.6 15.1 92 0.8 NNW 13 15 7 8 1020.3 1020.0 3.0
29/03:00am 16.4 15.5 14.9 91 0.9 NW 13 15 7 8 1020.3 1020.0 3.0
29/02:30am 16.5 14.8 14.7 89 1.1 NW 17 20 9 11 1020.4 1020.2 3.0
29/02:00am 16.8 14.6 14.8 88 1.2 NW 20 30 11 16 1020.7 1020.5 3.0
29/01:30am 16.4 14.6 14.4 88 1.2 N 17 20 9 11 1020.7 1020.5 3.0
29/01:00am 16.3 15.6 14.3 88 1.2 NNW 11 13 6 7 1021.2 1021.0 3.0
29/12:30am 15.9 16.1 14.6 92 0.8 N 7 9 4 5 1021.3 1021.1 3.0
29/12:00am 15.9 16.0 14.4 91 0.9 NNE 7 9 4 5 1021.3 1021.1 3.0
 
Date/Time
WST
Temp
°C
App
Temp
°C
Dew
Point
Rel
Hum
%
Delta-T
°C
Wind Press
QNH
hPa
Press
MSL
hPa
Rain
since 9 am
mm
Dir
 
Spd
km/h
Gust
km/h
Spd
kts
Gust
kts
28/11:30pm 16.6 16.1 13.9 84 1.6 NNW 9 13 5 7 1021.4 1021.2 2.8
28/11:00pm 16.6 16.9 14.4 87 1.3 NNW 6 7 3 4 1021.7 1021.4 2.8
28/10:30pm 16.6 16.6 14.2 86 1.4 NW 7 9 4 5 1021.4 1021.2 2.8
28/10:00pm 16.2 15.9 14.4 89 1.0 N 9 11 5 6 1021.3 1021.1 2.8
28/09:30pm 16.2 16.3 14.4 89 1.0 NNW 7 9 4 5 1021.4 1021.2 2.8
28/09:00pm 16.3 16.5 14.3 88 1.2 WNW 6 7 3 4 1021.5 1021.3 2.8
28/08:30pm 16.2 16.4 14.2 88 1.2 WNW 6 11 3 6 1021.4 1021.2 2.8
28/08:00pm 16.3 15.6 14.3 88 1.2 NW 11 15 6 8 1021.8 1021.5 2.8
28/07:30pm 16.1 15.1 14.5 90 0.9 WNW 13 19 7 10 1022.3 1022.0 2.6
28/07:00pm 16.3 15.9 14.1 87 1.3 WNW 9 13 5 7 1021.5 1021.3 1.0
28/06:30pm 16.6 14.0 13.9 84 1.6 NW 20 35 11 19 1021.4 1021.2 0.4
28/06:00pm 18.5 14.0 12.7 69 3.3 NW 28 37 15 20 1021.7 1021.4 0.0
28/05:30pm 20.2 15.1 10.6 54 5.3 NNW 28 52 15 28 1020.2 1019.9 0.0
28/05:28pm 21.0 17.4 9.9 49 6.1 NW 19 50 10 27 1020.2 1019.9 0.0
28/05:27pm 21.6 18.3 9.5 46 6.6 NW 17 43 9 23 1020.2 1019.9 0.0
28/05:00pm 21.6 19.9 9.8 47 6.5 W 9 13 5 7 1020.0 1019.7 0.0
28/04:30pm 22.1 17.5 9.6 45 6.9 NW 24 32 13 17 1019.5 1019.2 0.0
28/04:00pm 22.4 19.0 7.8 39 7.8 WSW 15 20 8 11 1019.6 1019.3 0.0
28/03:30pm 22.7 20.4 7.3 37 8.1 WNW 9 13 5 7 1019.2 1018.9 0.0
28/03:00pm 22.6 20.6 8.7 41 7.5 NW 9 13 5 7 1019.3 1019.0 0.0
28/02:30pm 22.7 18.9 5.6 33 8.8 NNW 15 22 8 12 1019.7 1019.4 0.0
28/02:00pm 23.0 17.7 5.0 31 9.1 N 22 28 12 15 1019.6 1019.3 0.0
28/01:30pm 22.1 15.5 4.2 31 8.9 NNW 28 37 15 20 1020.1 1019.8 0.0
28/01:00pm 22.0 14.5 3.6 30 9.0 N 32 39 17 21 1020.2 1019.9 0.0
28/12:30pm 22.7 15.3 3.8 29 9.4 N 32 41 17 22 1020.5 1020.3 0.0
28/12:00pm 22.1 14.4 3.3 29 9.2 N 33 48 18 26 1020.8 1020.6 0.0
28/11:30am 20.2 12.3 2.5 31 8.4 N 33 44 18 24 1021.4 1021.2 0.0
28/11:00am 19.5 11.8 2.4 32 8.0 N 32 48 17 26 1022.2 1021.9 0.0
28/10:30am 17.9 10.9 1.8 34 7.4 N 28 39 15 21 1022.6 1022.4 0.0
28/10:00am 16.3 8.9 1.6 37 6.6 NNE 30 41 16 22 1023.1 1022.9 0.0
28/09:30am 15.4 8.3 1.5 39 6.2 N 28 39 15 21 1023.5 1023.3 0.0
28/09:00am 15.0 7.1 1.2 39 6.1 NNE 32 44 17 24 1023.4 1023.2 0.0
28/08:30am 14.5 7.4 1.1 40 5.9 NNE 28 37 15 20 1023.8 1023.6 0.0
28/08:00am 13.4 7.8 1.4 44 5.2 NNE 20 32 11 17 1024.0 1023.8 0.0
28/07:30am 13.5 7.7 -0.2 39 5.8 NNE 20 30 11 16 1024.1 1023.9 0.0
28/07:00am 13.3 7.7 -0.3 39 5.7 NNE 19 28 10 15 1024.0 1023.8 0.0
28/06:30am 13.0 7.2 -0.3 40 5.6 NNE 20 28 11 15 1023.8 1023.6 0.0
28/06:00am 13.1 7.5 -0.2 40 5.6 NNE 19 28 10 15 1023.6 1023.4 0.0
28/05:30am 13.2 7.5 -0.4 39 5.7 NNE 19 26 10 14 1023.4 1023.2 0.0
28/05:00am 13.1 7.2 -0.9 38 5.8 NNE 20 26 11 14 1023.6 1023.4 0.0
28/04:30am 13.3 7.6 -0.7 38 5.9 NNE 19 24 10 13 1023.8 1023.6 0.0
28/04:00am 13.4 7.5 -0.6 38 5.9 NNE 20 30 11 16 1023.9 1023.7 0.0
28/03:30am 13.2 7.3 -0.8 38 5.8 NNE 20 28 11 15 1024.4 1024.1 0.0
28/03:00am 13.2 7.5 -0.8 38 5.8 NE 19 26 10 14 1024.1 1023.9 0.0
28/02:30am 13.3 7.6 -0.7 38 5.9 NE 19 26 10 14 1024.4 1024.1 0.0
28/02:00am 13.3 7.6 -0.7 38 5.8 NE 19 28 10 15 1024.1 1023.9 0.0
28/01:30am 13.2 7.3 -0.8 38 5.8 NE 20 28 11 15 1024.8 1024.6 0.0
28/01:00am 13.4 7.7 -1.0 37 6.0 NE 19 26 10 14 1025.0 1024.8 0.0
28/12:30am 13.8 7.9 -1.0 36 6.2 NE 20 30 11 16 1025.2 1025.0 0.0
28/12:00am 13.6 8.3 -0.8 37 6.0 NE 17 20 9 11 1025.4 1025.2 0.0
 
Date/Time
WST
Temp
°C
App
Temp
°C
Dew
Point
Rel
Hum
%
Delta-T
°C
Wind Press
QNH
hPa
Press
MSL
hPa
Rain
since 9 am
mm
Dir
 
Spd
km/h
Gust
km/h
Spd
kts
Gust
kts
27/11:30pm 12.8 8.3 -0.4 40 5.5 NE 13 17 7 9 1025.7 1025.5 0.0
27/11:00pm 12.6 8.5 -0.3 41 5.4 NE 11 15 6 8 1026.2 1026.0 0.0
27/10:30pm 13.2 8.0 -0.1 40 5.6 NE 17 24 9 13 1025.8 1025.6 0.0
27/10:00pm 13.5 8.3 -0.2 39 5.8 ENE 17 20 9 11 1025.6 1025.4 0.0
27/09:30pm 13.9 9.0 -0.2 38 6.0 ENE 15 20 8 11 1025.9 1025.7 0.0
27/09:00pm 14.7 9.4 -0.6 35 6.5 ENE 17 22 9 12 1026.2 1026.0 0.0
27/08:30pm 15.1 10.2 -0.2 35 6.6 ENE 15 19 8 10 1026.2 1026.0 0.0
27/08:00pm 15.2 10.4 -0.1 35 6.6 ENE 15 20 8 11 1026.0 1025.8 0.0
27/07:30pm 14.8 10.0 -0.1 36 6.4 E 15 17 8 9 1026.0 1025.8 0.0
27/07:00pm 14.6 10.4 -0.7 35 6.5 E 11 13 6 7 1026.0 1025.8 0.0
27/06:30pm - - - - - E 11 13 6 7 1026.0 1025.8 0.0

Other Formats:

Comma delimited format used in spreadsheet applications
http://www.bom.gov.au/fwo/IDW60801/IDW60801.94429.axf

JavaScript Object Notation format (JSON) in row-major order
http://www.bom.gov.au/fwo/IDW60801/IDW60801.94429.json